Time,TemperatureF,DewpointF,PressureIn,WindDirection,WindDirectionDegrees,WindSpeedMPH,WindSpeedGustMPH,Humidity,HourlyPrecipIn,Conditions,Clouds,dailyrainin,SolarRadiationWatts/m^2,SoftwareType,DateUTC
2014-07-25 00:01:00,64.9,32.0,29.83,West,272,1.1,1.1,29,0.00,,,0.09,0,TxWx,2014-07-25 04:01:00,
2014-07-25 00:02:00,64.9,30.8,29.83,SSW,206,1.1,2.0,27,0.00,,,0.09,0,TxWx,2014-07-25 04:02:00,
2014-07-25 00:07:00,64.9,29.8,29.83,SW,232,0.0,0.0,26,0.00,,,0.09,0,TxWx,2014-07-25 04:07:00,
2014-07-25 00:12:00,65.0,27.7,29.83,NW,306,0.0,0.0,24,0.00,,,0.09,0,TxWx,2014-07-25 04:12:00,
2014-07-25 00:17:00,64.9,25.0,29.83,NW,306,0.0,0.0,21,0.00,,,0.09,0,TxWx,2014-07-25 04:17:00,
2014-07-25 00:22:00,64.8,26.5,29.83,NW,306,0.0,0.0,23,0.00,,,0.09,0,TxWx,2014-07-25 04:22:00,
2014-07-25 00:27:00,64.7,27.7,29.83,NW,306,0.0,0.0,24,0.00,,,0.09,0,TxWx,2014-07-25 04:27:00,
2014-07-25 00:32:00,64.6,26.7,29.83,NW,306,0.0,0.0,23,0.00,,,0.09,0,TxWx,2014-07-25 04:32:00,
2014-07-25 00:37:00,64.7,24.1,29.83,NW,306,0.0,0.0,21,0.00,,,0.09,0,TxWx,2014-07-25 04:37:00,
2014-07-25 00:42:00,64.7,24.4,29.83,NW,306,0.0,0.0,21,0.00,,,0.09,0,TxWx,2014-07-25 04:42:00,
2014-07-25 00:47:00,64.7,27.6,29.83,NNW,332,0.0,0.0,24,0.00,,,0.09,0,TxWx,2014-07-25 04:47:00,
2014-07-25 00:52:00,64.6,25.9,29.83,NNW,328,0.0,0.0,22,0.00,,,0.09,0,TxWx,2014-07-25 04:52:00,
2014-07-25 00:57:00,64.4,23.1,29.84,SSW,204,1.1,2.0,20,0.00,,,0.09,0,TxWx,2014-07-25 04:57:00,
2014-07-25 01:02:00,64.4,18.9,29.84,SSW,208,1.1,2.0,17,0.00,,,0.00,0,TxWx,2014-07-25 05:02:00,
2014-07-25 01:07:00,64.3,23.4,29.84,SW,229,1.1,2.0,20,0.00,,,0.00,0,TxWx,2014-07-25 05:07:00,
2014-07-25 01:12:00,64.5,25.4,29.84,WSW,250,0.0,0.0,22,0.00,,,0.00,0,TxWx,2014-07-25 05:12:00,
2014-07-25 01:17:00,64.4,27.0,29.84,WSW,250,1.1,1.1,24,0.00,,,0.00,0,TxWx,2014-07-25 05:17:00,
2014-07-25 01:22:00,64.2,23.6,29.83,WSW,250,0.0,0.0,21,0.00,,,0.00,0,TxWx,2014-07-25 05:22:00,
2014-07-25 01:27:00,64.1,23.6,29.83,NW,317,0.0,0.0,21,0.00,,,0.00,0,TxWx,2014-07-25 05:27:00,
2014-07-25 01:32:00,64.0,22.3,29.84,NW,317,0.0,0.0,20,0.00,,,0.00,0,TxWx,2014-07-25 05:32:00,
2014-07-25 01:37:00,63.8,18.6,29.84,NW,316,0.0,1.0,17,0.00,,,0.00,0,TxWx,2014-07-25 05:37:00,
2014-07-25 01:42:00,63.8,12.7,29.83,NW,316,0.0,0.0,13,0.00,,,0.00,0,TxWx,2014-07-25 05:42:00,
2014-07-25 01:47:00,63.6,14.1,29.83,NW,316,0.0,0.0,14,0.00,,,0.00,0,TxWx,2014-07-25 05:47:00,
2014-07-25 01:52:00,63.5,12.3,29.83,NW,316,0.0,0.0,13,0.00,,,0.00,0,TxWx,2014-07-25 05:52:00,
2014-07-25 01:57:00,63.5,7.7,29.83,NW,316,0.0,0.0,10,0.00,,,0.00,0,TxWx,2014-07-25 05:57:00,
2014-07-25 02:02:00,63.3,6.3,29.83,NW,316,0.0,0.0,10,0.00,,,0.00,0,TxWx,2014-07-25 06:02:00,
2014-07-25 02:07:00,63.2,6.1,29.83,NW,316,0.0,0.0,10,0.00,,,0.00,0,TxWx,2014-07-25 06:07:00,
2014-07-25 02:12:00,63.0,3.5,29.82,NW,316,0.0,0.0,9,0.00,,,0.00,0,TxWx,2014-07-25 06:12:00,
2014-07-25 02:17:00,62.9,-4.5,29.82,NW,316,0.0,0.0,6,0.00,,,0.00,0,TxWx,2014-07-25 06:17:00,
2014-07-25 02:22:00,62.8,-7.7,29.82,NNW,345,0.0,0.0,5,0.00,,,0.00,0,TxWx,2014-07-25 06:22:00,
2014-07-25 02:27:00,62.5,-8.4,29.82,NNW,345,0.0,0.0,5,0.00,,,0.00,0,TxWx,2014-07-25 06:27:00,
2014-07-25 02:32:00,62.3,-22.6,29.82,NNW,345,0.0,0.0,2,0.00,,,0.00,0,TxWx,2014-07-25 06:32:00,
2014-07-25 02:37:00,62.2,-41.1,29.82,NNW,345,0.0,0.0,0,0.00,,,0.00,0,TxWx,2014-07-25 06:37:00,
2014-07-25 02:42:00,62.0,-39.6,29.82,NNW,345,0.0,0.0,0,0.00,,,0.00,0,TxWx,2014-07-25 06:42:00,
2014-07-25 02:47:00,61.8,-39.7,29.82,NNW,345,0.0,0.0,0,0.00,,,0.00,0,TxWx,2014-07-25 06:47:00,
2014-07-25 02:52:00,61.7,-39.8,29.82,NNW,347,0.0,0.0,0,0.00,,,0.00,0,TxWx,2014-07-25 06:52:00,
2014-07-25 02:57:00,61.6,-39.9,29.82,WNW,295,0.0,0.0,0,0.00,,,0.00,0,TxWx,2014-07-25 06:57:00,
2014-07-25 03:02:00,61.5,-39.9,29.81,WNW,292,0.0,0.0,0,0.00,,,0.00,0,TxWx,2014-07-25 07:02:00,
2014-07-25 03:07:00,61.5,-39.9,29.81,WNW,292,0.0,0.0,0,0.00,,,0.00,0,TxWx,2014-07-25 07:07:00,
2014-07-25 03:12:00,61.4,-40.0,29.81,WNW,292,0.0,0.0,0,0.00,,,0.00,0,TxWx,2014-07-25 07:12:00,
2014-07-25 03:17:00,61.3,-40.1,29.81,WNW,288,0.0,0.0,0,0.00,,,0.00,0,TxWx,2014-07-25 07:17:00,
2014-07-25 03:22:00,61.2,-40.1,29.81,WNW,288,0.0,0.0,0,0.00,,,0.00,0,TxWx,2014-07-25 07:22:00,
2014-07-25 03:27:00,61.2,-40.1,29.80,WNW,287,0.0,0.0,0,0.00,,,0.00,0,TxWx,2014-07-25 07:27:00,
2014-07-25 03:32:00,61.1,-40.2,29.80,WNW,287,0.0,0.0,0,0.00,,,0.00,0,TxWx,2014-07-25 07:32:00,
2014-07-25 03:37:00,61.1,-40.2,29.80,WNW,287,0.0,0.0,0,0.00,,,0.00,0,TxWx,2014-07-25 07:37:00,
2014-07-25 03:42:00,61.2,-40.2,29.80,WNW,290,0.0,0.0,0,0.00,,,0.00,0,TxWx,2014-07-25 07:42:00,
2014-07-25 03:47:00,61.2,-40.2,29.80,WNW,290,0.0,0.0,0,0.00,,,0.00,0,TxWx,2014-07-25 07:47:00,
2014-07-25 03:52:00,61.2,-40.1,29.80,WNW,292,0.0,0.0,0,0.00,,,0.00,0,TxWx,2014-07-25 07:52:00,
2014-07-25 03:57:00,61.3,-40.0,29.80,WNW,292,0.0,0.0,0,0.00,,,0.00,0,TxWx,2014-07-25 07:57:00,
2014-07-25 04:02:00,61.4,-40.0,29.80,WNW,292,0.0,0.0,0,0.00,,,0.00,0,TxWx,2014-07-25 08:02:00,
2014-07-25 04:07:00,61.4,-40.0,29.80,WNW,293,0.0,0.0,0,0.00,,,0.00,0,TxWx,2014-07-25 08:07:00,
2014-07-25 04:12:00,61.6,-39.9,29.80,WNW,292,0.0,0.0,0,0.00,,,0.00,0,TxWx,2014-07-25 08:12:00,
2014-07-25 04:17:00,61.6,-39.9,29.80,WNW,292,0.0,0.0,0,0.00,,,0.00,0,TxWx,2014-07-25 08:17:00,
2014-07-25 04:22:00,61.7,-39.8,29.80,WNW,292,0.0,0.0,0,0.00,,,0.00,0,TxWx,2014-07-25 08:22:00,
2014-07-25 04:27:00,61.8,-39.8,29.80,WNW,292,0.0,0.0,0,0.00,,,0.00,0,TxWx,2014-07-25 08:27:00,
2014-07-25 04:32:00,61.9,-39.7,29.81,WNW,293,0.0,0.0,0,0.00,,,0.00,0,TxWx,2014-07-25 08:32:00,
2014-07-25 04:37:00,61.9,-39.7,29.81,WNW,292,0.0,0.0,0,0.00,,,0.00,0,TxWx,2014-07-25 08:37:00,
2014-07-25 04:42:00,62.0,-39.6,29.81,WNW,293,0.0,0.0,0,0.00,,,0.00,0,TxWx,2014-07-25 08:42:00,
2014-07-25 04:47:00,62.1,-39.6,29.81,WNW,292,0.0,0.0,0,0.00,,,0.00,0,TxWx,2014-07-25 08:47:00,
2014-07-25 04:52:00,62.0,-39.6,29.81,WNW,293,0.0,0.0,0,0.00,,,0.00,0,TxWx,2014-07-25 08:52:00,
2014-07-25 04:57:00,62.0,-39.7,29.81,WNW,292,0.0,0.0,0,0.00,,,0.00,0,TxWx,2014-07-25 08:57:00,
2014-07-25 05:02:00,61.9,-39.7,29.82,WNW,292,0.0,0.0,0,0.00,,,0.00,0,TxWx,2014-07-25 09:02:00,
2014-07-25 05:07:00,61.9,-39.7,29.81,WNW,292,0.0,0.0,0,0.00,,,0.00,0,TxWx,2014-07-25 09:07:00,
2014-07-25 05:12:00,61.8,-39.8,29.81,WNW,292,0.0,0.0,0,0.00,,,0.00,0,TxWx,2014-07-25 09:12:00,
2014-07-25 05:17:00,61.7,-39.8,29.81,WNW,292,0.0,0.0,0,0.00,,,0.00,0,TxWx,2014-07-25 09:17:00,
2014-07-25 05:22:00,61.6,-39.9,29.82,WNW,292,0.0,0.0,0,0.00,,,0.00,0,TxWx,2014-07-25 09:22:00,
2014-07-25 05:27:00,61.4,-40.0,29.82,WNW,296,0.0,0.0,0,0.00,,,0.00,0,TxWx,2014-07-25 09:27:00,
2014-07-25 05:32:00,61.2,-40.1,29.82,NW,314,0.0,0.0,0,0.00,,,0.00,0,TxWx,2014-07-25 09:32:00,
2014-07-25 05:37:00,61.0,-40.3,29.82,NNW,334,1.1,1.1,0,0.00,,,0.00,0,TxWx,2014-07-25 09:37:00,
2014-07-25 05:42:00,60.9,-40.3,29.82,NNW,334,0.0,0.0,0,0.00,,,0.00,0,TxWx,2014-07-25 09:42:00,
2014-07-25 05:47:00,60.7,-40.4,29.82,NNW,334,0.0,0.0,0,0.00,,,0.00,0,TxWx,2014-07-25 09:47:00,
2014-07-25 05:52:00,60.7,-40.4,29.82,NNW,334,0.0,0.0,0,0.00,,,0.00,0,TxWx,2014-07-25 09:52:00,
2014-07-25 05:57:00,60.7,-40.5,29.83,NNW,334,0.0,0.0,0,0.00,,,0.00,0,TxWx,2014-07-25 09:57:00,
2014-07-25 06:02:00,60.6,-40.5,29.83,NNW,334,0.0,0.0,0,0.00,,,0.00,0,TxWx,2014-07-25 10:02:00,
2014-07-25 06:07:00,60.7,-40.4,29.83,NNW,334,0.0,0.0,0,0.00,,,0.00,0,TxWx,2014-07-25 10:07:00,
2014-07-25 06:12:00,60.3,-40.7,29.83,NNW,337,0.0,0.0,0,0.00,,,0.00,0,TxWx,2014-07-25 10:12:00,
2014-07-25 06:17:00,60.3,-40.7,29.83,NNW,337,0.0,0.0,0,0.00,,,0.00,0,TxWx,2014-07-25 10:17:00,
2014-07-25 06:22:00,60.3,-40.7,29.83,NNW,337,0.0,0.0,0,0.00,,,0.00,1,TxWx,2014-07-25 10:22:00,
2014-07-25 06:27:00,60.2,-40.7,29.84,NNW,337,0.0,0.0,0,0.00,,,0.00,1,TxWx,2014-07-25 10:27:00,
2014-07-25 06:32:00,60.3,-40.7,29.84,NNW,337,0.0,0.0,0,0.00,,,0.00,2,TxWx,2014-07-25 10:32:00,
2014-07-25 06:37:00,60.4,-40.6,29.84,NNW,336,0.0,0.0,0,0.00,,,0.00,2,TxWx,2014-07-25 10:37:00,
2014-07-25 06:42:00,60.5,-40.5,29.84,NNW,337,0.0,0.0,0,0.00,,,0.00,3,TxWx,2014-07-25 10:42:00,
2014-07-25 06:47:00,60.6,-40.5,29.84,NNW,337,0.0,0.0,0,0.00,,,0.00,4,TxWx,2014-07-25 10:47:00,
2014-07-25 06:52:00,60.7,-40.4,29.85,NNW,336,0.0,0.0,0,0.00,,,0.00,5,TxWx,2014-07-25 10:52:00,
2014-07-25 06:57:00,60.7,-40.4,29.85,NNW,337,0.0,0.0,0,0.00,,,0.00,7,TxWx,2014-07-25 10:57:00,
2014-07-25 07:02:00,60.8,-40.4,29.85,NNW,337,0.0,0.0,0,0.00,,,0.00,9,TxWx,2014-07-25 11:02:00,
2014-07-25 07:07:00,60.9,-40.3,29.85,NNW,337,0.0,0.0,0,0.00,,,0.00,11,TxWx,2014-07-25 11:07:00,
2014-07-25 07:12:00,60.9,-40.3,29.85,NNW,336,0.0,0.0,0,0.00,,,0.00,12,TxWx,2014-07-25 11:12:00,
2014-07-25 07:17:00,61.0,-40.3,29.85,NNW,336,0.0,0.0,0,0.00,,,0.00,11,TxWx,2014-07-25 11:17:00,
2014-07-25 07:22:00,61.1,-40.2,29.86,NW,319,0.0,0.0,0,0.00,,,0.00,15,TxWx,2014-07-25 11:22:00,
2014-07-25 07:27:00,61.1,-40.2,29.86,NW,319,0.0,0.0,0,0.00,,,0.00,20,TxWx,2014-07-25 11:27:00,
2014-07-25 07:32:00,61.0,-40.2,29.86,NW,318,0.0,0.0,0,0.00,,,0.00,26,TxWx,2014-07-25 11:32:00,
2014-07-25 07:37:00,61.1,-40.2,29.86,NW,319,0.0,0.0,0,0.00,,,0.00,26,TxWx,2014-07-25 11:37:00,
2014-07-25 07:42:00,61.3,-40.1,29.86,NW,319,0.0,0.0,0,0.00,,,0.00,26,TxWx,2014-07-25 11:42:00,
2014-07-25 07:47:00,61.4,-40.0,29.86,NW,319,0.0,0.0,0,0.00,,,0.00,25,TxWx,2014-07-25 11:47:00,
2014-07-25 07:52:00,61.4,-40.0,29.86,NW,319,0.0,0.0,0,0.00,,,0.00,39,TxWx,2014-07-25 11:52:00,
2014-07-25 07:57:00,61.6,-39.9,29.86,NW,317,0.0,0.0,0,0.00,,,0.00,40,TxWx,2014-07-25 11:57:00,
2014-07-25 08:02:00,61.4,-40.0,29.86,NW,317,0.0,0.0,0,0.00,,,0.00,42,TxWx,2014-07-25 12:02:00,
2014-07-25 08:07:00,61.5,-39.9,29.86,WNW,288,0.0,0.0,0,0.00,,,0.00,42,TxWx,2014-07-25 12:07:00,
2014-07-25 08:12:00,61.5,-39.9,29.87,West,279,1.1,1.1,0,0.00,,,0.00,43,TxWx,2014-07-25 12:12:00,
2014-07-25 08:17:00,61.7,-39.8,29.87,WNW,285,0.0,0.0,0,0.00,,,0.00,66,TxWx,2014-07-25 12:17:00,
2014-07-25 08:22:00,61.7,-39.8,29.87,WNW,303,0.0,0.0,0,0.00,,,0.00,75,TxWx,2014-07-25 12:22:00,
2014-07-25 08:27:00,61.7,-39.8,29.87,WNW,300,0.0,0.0,0,0.00,,,0.00,72,TxWx,2014-07-25 12:27:00,
2014-07-25 08:32:00,61.9,-39.7,29.87,WNW,300,0.0,0.0,0,0.00,,,0.00,89,TxWx,2014-07-25 12:32:00,
2014-07-25 08:37:00,62.1,-39.6,29.88,WNW,300,0.0,0.0,0,0.00,,,0.00,62,TxWx,2014-07-25 12:37:00,
2014-07-25 08:42:00,62.0,-39.6,29.88,NNW,341,1.1,1.1,0,0.00,,,0.00,60,TxWx,2014-07-25 12:42:00,
2014-07-25 08:47:00,62.4,-39.4,29.88,NNW,341,0.0,0.0,0,0.00,,,0.00,61,TxWx,2014-07-25 12:47:00,
2014-07-25 08:52:00,62.5,-39.4,29.88,NE,38,1.1,1.1,0,0.00,,,0.00,37,TxWx,2014-07-25 12:52:00,
2014-07-25 08:57:00,62.5,-39.3,29.88,NNW,348,0.0,0.0,0,0.00,,,0.00,57,TxWx,2014-07-25 12:57:00,
2014-07-25 09:02:00,62.7,-39.2,29.88,NNW,348,0.0,1.0,0,0.00,,,0.00,34,TxWx,2014-07-25 13:02:00,
2014-07-25 09:07:00,62.7,-39.2,29.88,NNE,31,1.1,1.1,0,0.00,,,0.00,58,TxWx,2014-07-25 13:07:00,
2014-07-25 09:12:00,62.8,-39.2,29.88,NNE,17,0.0,0.0,0,0.00,,,0.00,36,TxWx,2014-07-25 13:12:00,
2014-07-25 09:17:00,62.9,-39.1,29.87,NNE,17,0.0,0.0,0,0.00,,,0.00,34,TxWx,2014-07-25 13:17:00,
2014-07-25 09:22:00,63.0,-39.1,29.87,NNE,17,0.0,0.0,0,0.00,,,0.00,36,TxWx,2014-07-25 13:22:00,
2014-07-25 09:27:00,62.9,-39.1,29.87,NNE,19,0.0,1.0,0,0.00,,,0.00,37,TxWx,2014-07-25 13:27:00,
2014-07-25 09:32:00,63.1,-39.0,29.86,NNE,22,0.0,0.0,0,0.00,,,0.00,36,TxWx,2014-07-25 13:32:00,
2014-07-25 09:37:00,63.3,-38.9,29.86,NNE,22,0.0,1.0,0,0.00,,,0.00,38,TxWx,2014-07-25 13:37:00,
2014-07-25 09:42:00,63.6,-38.7,29.86,NW,306,1.1,1.1,0,0.00,,,0.00,41,TxWx,2014-07-25 13:42:00,
2014-07-25 09:47:00,63.7,-38.6,29.86,NNW,348,0.0,0.0,0,0.00,,,0.00,34,TxWx,2014-07-25 13:47:00,
2014-07-25 09:52:00,63.9,-38.5,29.86,NNW,348,0.0,0.0,0,0.00,,,0.00,39,TxWx,2014-07-25 13:52:00,
2014-07-25 09:57:00,64.0,-38.5,29.86,NNW,348,0.0,0.0,0,0.00,,,0.00,36,TxWx,2014-07-25 13:57:00,
2014-07-25 10:02:00,64.0,-38.4,29.86,NNW,348,0.0,0.0,0,0.00,,,0.00,59,TxWx,2014-07-25 14:02:00,
2014-07-25 10:07:00,64.2,-38.3,29.86,NNE,29,0.0,0.0,0,0.00,,,0.00,64,TxWx,2014-07-25 14:07:00,
2014-07-25 10:12:00,64.4,-38.2,29.86,NNE,29,0.0,0.0,0,0.00,,,0.00,91,TxWx,2014-07-25 14:12:00,
2014-07-25 10:17:00,64.7,-38.0,29.86,NE,47,1.1,2.0,0,0.00,,,0.00,62,TxWx,2014-07-25 14:17:00,
2014-07-25 10:22:00,64.9,-37.9,29.86,NE,50,1.1,1.1,0,0.00,,,0.00,55,TxWx,2014-07-25 14:22:00,
2014-07-25 10:27:00,65.1,-37.8,29.86,NE,52,1.1,1.1,0,0.00,,,0.00,69,TxWx,2014-07-25 14:27:00,
2014-07-25 10:32:00,65.3,-37.7,29.86,East,88,1.1,1.1,0,0.00,,,0.00,55,TxWx,2014-07-25 14:32:00,
2014-07-25 10:37:00,65.4,-37.6,29.86,SE,124,1.1,1.1,0,0.00,,,0.00,100,TxWx,2014-07-25 14:37:00,
2014-07-25 10:42:00,65.7,-37.4,29.86,ESE,116,1.1,1.1,0,0.00,,,0.00,113,TxWx,2014-07-25 14:42:00,
2014-07-25 10:47:00,66.2,-37.1,29.86,South,182,1.1,1.1,0,0.00,,,0.00,149,TxWx,2014-07-25 14:47:00,
2014-07-25 10:52:00,66.9,1.1,29.87,SE,132,1.1,1.1,7,0.00,,,0.00,121,TxWx,2014-07-25 14:52:00,
2014-07-25 10:57:00,67.6,40.7,29.88,East,86,1.1,1.1,37,0.00,,,0.00,102,TxWx,2014-07-25 14:57:00,
2014-07-25 11:02:00,68.0,55.6,29.88,South,170,2.4,2.4,64,0.00,,,0.00,76,TxWx,2014-07-25 15:02:00,
2014-07-25 11:08:00,68.9,59.4,29.88,WSW,256,1.1,2.0,71,0.00,,,0.00,57,TxWx,2014-07-25 15:08:00,
2014-07-25 11:13:00,69.0,64.7,29.86,North,354,1.1,1.1,86,0.00,,,0.00,54,TxWx,2014-07-25 15:13:00,
2014-07-25 11:18:00,68.6,65.1,29.86,South,184,2.4,2.4,88,0.00,,,0.00,56,TxWx,2014-07-25 15:18:00,
2014-07-25 11:23:00,69.1,67.9,29.86,NNW,348,0.0,0.0,96,0.00,,,0.00,61,TxWx,2014-07-25 15:23:00,
2014-07-25 11:28:00,69.3,68.3,29.86,South,186,2.4,2.4,96,0.00,,,0.00,66,TxWx,2014-07-25 15:28:00,
2014-07-25 11:33:00,69.1,68.5,29.86,South,175,2.4,2.4,97,0.00,,,0.00,68,TxWx,2014-07-25 15:33:00,
2014-07-25 11:38:00,69.3,68.6,29.87,SSE,153,2.4,2.4,97,0.00,,,0.00,61,TxWx,2014-07-25 15:38:00,
2014-07-25 11:43:00,69.7,69.2,29.86,North,1,3.5,5.0,98,0.00,,,0.00,64,TxWx,2014-07-25 15:43:00,
2014-07-25 11:48:00,69.7,69.2,29.87,NE,44,1.1,2.0,98,0.00,,,0.00,74,TxWx,2014-07-25 15:48:00,
2014-07-25 11:53:00,69.7,69.1,29.87,East,85,1.1,1.1,98,0.00,,,0.00,580,TxWx,2014-07-25 15:53:00,
2014-07-25 11:58:00,70.1,69.4,29.87,SSE,164,1.1,2.0,97,0.00,,,0.00,595,TxWx,2014-07-25 15:58:00,
2014-07-25 12:03:00,70.8,70.0,29.87,SSE,158,0.0,0.0,97,0.00,,,0.00,612,TxWx,2014-07-25 16:03:00,
2014-07-25 12:08:00,71.4,70.6,29.87,East,80,0.0,1.0,97,0.00,,,0.00,630,TxWx,2014-07-25 16:08:00,
2014-07-25 12:13:00,72.4,71.5,29.87,ENE,74,1.1,2.0,96,0.00,,,0.00,641,TxWx,2014-07-25 16:13:00,
2014-07-25 12:18:00,73.0,72.1,29.86,ENE,58,3.5,3.5,97,0.00,,,0.00,656,TxWx,2014-07-25 16:18:00,
2014-07-25 12:23:00,73.3,71.9,29.86,East,82,0.0,1.0,95,0.00,,,0.00,665,TxWx,2014-07-25 16:23:00,
2014-07-25 12:28:00,73.5,70.0,29.86,ESE,122,2.4,3.0,88,0.00,,,0.00,682,TxWx,2014-07-25 16:28:00,
2014-07-25 12:33:00,73.3,66.9,29.85,South,177,1.1,2.0,80,0.00,,,0.00,698,TxWx,2014-07-25 16:33:00,
2014-07-25 12:38:00,73.9,69.9,29.85,SSW,204,1.1,1.1,87,0.00,,,0.00,714,TxWx,2014-07-25 16:38:00,
2014-07-25 12:43:00,73.8,68.4,29.85,West,278,2.4,2.4,83,0.00,,,0.00,726,TxWx,2014-07-25 16:43:00,
2014-07-25 12:48:00,74.7,67.8,29.85,East,87,0.0,1.0,79,0.00,,,0.00,737,TxWx,2014-07-25 16:48:00,
2014-07-25 12:53:00,74.6,68.0,29.85,WSW,240,1.1,1.1,80,0.00,,,0.00,752,TxWx,2014-07-25 16:53:00,
2014-07-25 12:58:00,75.3,68.1,29.84,SSW,207,1.1,1.1,78,0.00,,,0.00,756,TxWx,2014-07-25 16:58:00,
2014-07-25 13:03:00,75.3,65.9,29.84,SSE,149,1.1,2.0,72,0.00,,,0.00,407,TxWx,2014-07-25 17:03:00,
2014-07-25 13:08:00,75.5,66.9,29.84,SE,126,1.1,1.1,74,0.00,,,0.00,785,TxWx,2014-07-25 17:08:00,
2014-07-25 13:13:00,75.4,67.1,29.84,SE,124,1.1,1.1,75,0.00,,,0.00,127,TxWx,2014-07-25 17:13:00,
2014-07-25 13:18:00,75.1,67.0,29.84,ENE,67,0.0,1.0,76,0.00,,,0.00,812,TxWx,2014-07-25 17:18:00,
2014-07-25 13:24:00,75.1,66.4,29.84,SSW,207,2.4,2.4,74,0.00,,,0.00,847,TxWx,2014-07-25 17:24:00,
2014-07-25 13:29:00,75.4,67.9,29.84,South,190,2.4,2.4,77,0.00,,,0.00,872,TxWx,2014-07-25 17:29:00,
2014-07-25 13:34:00,76.2,65.6,29.84,SSE,158,0.0,0.0,69,0.00,,,0.00,199,TxWx,2014-07-25 17:34:00,
2014-07-25 13:39:00,75.1,66.2,29.84,South,176,0.0,0.0,74,0.00,,,0.00,333,TxWx,2014-07-25 17:39:00,
2014-07-25 13:44:00,74.2,68.2,29.84,SSE,147,1.1,1.1,81,0.00,,,0.00,933,TxWx,2014-07-25 17:44:00,
2014-07-25 13:49:00,73.5,68.5,29.84,South,173,2.4,2.4,84,0.00,,,0.00,177,TxWx,2014-07-25 17:49:00,
2014-07-25 13:54:00,72.6,68.2,29.84,South,185,1.1,2.0,86,0.00,,,0.00,489,TxWx,2014-07-25 17:54:00,
2014-07-25 13:59:00,71.9,69.9,29.84,SSE,152,2.4,2.4,93,0.00,,,0.00,882,TxWx,2014-07-25 17:59:00,
2014-07-25 14:04:00,72.1,69.9,29.83,South,177,2.4,2.4,92,0.00,,,0.00,199,TxWx,2014-07-25 18:04:00,
2014-07-25 14:09:00,72.5,71.3,29.83,SSE,164,0.0,1.0,95,0.00,,,0.00,784,TxWx,2014-07-25 18:09:00,
2014-07-25 14:14:00,73.1,71.0,29.83,SSE,157,2.4,2.4,93,0.00,,,0.00,934,TxWx,2014-07-25 18:14:00,
2014-07-25 14:19:00,73.8,70.6,29.83,NE,52,1.1,1.1,89,0.00,,,0.00,248,TxWx,2014-07-25 18:19:00,
2014-07-25 14:24:00,72.8,68.5,29.83,SSW,194,1.1,2.0,86,0.00,,,0.00,177,TxWx,2014-07-25 18:24:00,
2014-07-25 14:29:00,73.1,67.2,29.83,South,188,2.4,2.4,81,0.00,,,0.00,235,TxWx,2014-07-25 18:29:00,
2014-07-25 14:34:00,73.6,70.5,29.82,SE,144,2.4,2.4,90,0.00,,,0.00,685,TxWx,2014-07-25 18:34:00,
2014-07-25 14:39:00,74.0,69.5,29.83,NE,45,2.4,2.4,85,0.00,,,0.00,208,TxWx,2014-07-25 18:39:00,
2014-07-25 14:44:00,74.3,68.4,29.83,SSW,207,2.4,2.4,81,0.00,,,0.00,789,TxWx,2014-07-25 18:44:00,
2014-07-25 14:49:00,75.3,68.2,29.83,SSE,160,1.1,1.1,78,0.00,,,0.00,778,TxWx,2014-07-25 18:49:00,
2014-07-25 14:54:00,76.5,68.3,29.82,SSE,165,2.4,3.0,75,0.00,,,0.00,736,TxWx,2014-07-25 18:54:00,
2014-07-25 14:59:00,76.8,66.4,29.82,South,171,2.4,2.4,70,0.00,,,0.00,732,TxWx,2014-07-25 18:59:00,
2014-07-25 15:04:00,77.5,67.4,29.82,SW,228,1.1,1.1,71,0.00,,,0.00,717,TxWx,2014-07-25 19:04:00,
2014-07-25 15:09:00,77.6,65.8,29.82,SE,140,2.4,2.4,66,0.00,,,0.00,670,TxWx,2014-07-25 19:09:00,
2014-07-25 15:14:00,77.2,65.5,29.82,WSW,239,1.1,2.0,67,0.00,,,0.00,662,TxWx,2014-07-25 19:14:00,
2014-07-25 15:19:00,77.2,63.6,29.82,South,170,1.1,2.0,63,0.00,,,0.00,653,TxWx,2014-07-25 19:19:00,
2014-07-25 15:25:00,78.1,66.9,29.82,SW,216,1.1,2.0,68,0.00,,,0.00,631,TxWx,2014-07-25 19:25:00,
2014-07-25 15:30:00,78.2,66.0,29.82,ESE,116,1.1,2.0,66,0.00,,,0.00,625,TxWx,2014-07-25 19:30:00,
2014-07-25 15:35:00,78.5,67.1,29.82,WNW,290,2.4,2.4,68,0.00,,,0.00,632,TxWx,2014-07-25 19:35:00,
2014-07-25 15:40:00,78.6,65.4,29.82,West,259,1.1,1.1,64,0.00,,,0.00,633,TxWx,2014-07-25 19:40:00,
2014-07-25 15:45:00,78.9,63.2,29.82,WSW,244,1.1,2.0,58,0.00,,,0.00,620,TxWx,2014-07-25 19:45:00,
2014-07-25 15:50:00,78.6,63.3,29.82,SW,232,1.1,1.1,59,0.00,,,0.00,604,TxWx,2014-07-25 19:50:00,
2014-07-25 15:55:00,78.5,64.2,29.82,SSE,148,3.5,3.5,61,0.00,,,0.00,585,TxWx,2014-07-25 19:55:00,
2014-07-25 16:00:00,78.4,63.5,29.82,SSE,160,1.1,2.0,60,0.00,,,0.00,572,TxWx,2014-07-25 20:00:00,
2014-07-25 16:05:00,78.3,62.8,29.82,South,174,2.4,2.4,58,0.00,,,0.00,563,TxWx,2014-07-25 20:05:00,
2014-07-25 16:10:00,78.1,61.7,29.82,WSW,254,1.1,2.0,57,0.00,,,0.00,553,TxWx,2014-07-25 20:10:00,
2014-07-25 16:15:00,78.4,64.2,29.81,North,354,1.1,1.1,61,0.00,,,0.00,539,TxWx,2014-07-25 20:15:00,
2014-07-25 16:20:00,79.2,64.9,29.81,SW,235,1.1,2.0,61,0.00,,,0.00,536,TxWx,2014-07-25 20:20:00,
2014-07-25 16:25:00,79.3,64.3,29.82,WSW,237,0.0,1.0,60,0.00,,,0.00,164,TxWx,2014-07-25 20:25:00,
2014-07-25 16:30:00,80.5,65.2,29.82,NW,309,1.1,1.1,59,0.00,,,0.00,510,TxWx,2014-07-25 20:30:00,
2014-07-25 16:35:00,80.6,65.0,29.82,SW,228,1.1,1.1,59,0.00,,,0.00,509,TxWx,2014-07-25 20:35:00,
2014-07-25 16:40:00,80.2,64.2,29.82,WSW,239,1.1,1.1,58,0.00,,,0.00,505,TxWx,2014-07-25 20:40:00,
2014-07-25 16:45:00,80.3,64.6,29.82,SW,227,2.4,2.4,58,0.00,,,0.00,484,TxWx,2014-07-25 20:45:00,
2014-07-25 16:50:00,79.5,63.8,29.82,West,261,0.0,0.0,58,0.00,,,0.00,462,TxWx,2014-07-25 20:50:00,
2014-07-25 16:55:00,80.4,65.2,29.82,West,270,0.0,0.0,60,0.00,,,0.00,459,TxWx,2014-07-25 20:55:00,
2014-07-25 17:00:00,80.0,66.8,29.81,NNW,339,1.1,1.1,64,0.00,,,0.00,502,TxWx,2014-07-25 21:00:00,
2014-07-25 17:05:00,79.5,64.3,29.81,NNE,20,1.1,1.1,59,0.00,,,0.00,504,TxWx,2014-07-25 21:05:00,
2014-07-25 17:10:00,79.3,65.4,29.82,SW,215,1.1,2.0,62,0.00,,,0.00,467,TxWx,2014-07-25 21:10:00,
2014-07-25 17:15:00,80.0,66.4,29.82,WSW,245,1.1,1.1,63,0.00,,,0.00,451,TxWx,2014-07-25 21:15:00,
2014-07-25 17:20:00,80.0,66.4,29.82,South,178,1.1,2.0,63,0.00,,,0.00,444,TxWx,2014-07-25 21:20:00,
2014-07-25 17:25:00,77.7,63.6,29.82,South,190,3.5,3.5,62,0.00,,,0.00,87,TxWx,2014-07-25 21:25:00,
2014-07-25 17:30:00,76.7,65.2,29.82,ESE,119,1.1,1.1,67,0.00,,,0.00,398,TxWx,2014-07-25 21:30:00,
2014-07-25 17:35:00,77.7,68.9,29.82,NNW,334,1.1,1.1,74,0.00,,,0.00,389,TxWx,2014-07-25 21:35:00,
2014-07-25 17:40:00,77.9,66.3,29.82,ESE,113,1.1,2.0,67,0.00,,,0.00,372,TxWx,2014-07-25 21:40:00,
2014-07-25 17:45:00,78.1,67.9,29.82,SW,234,0.0,1.0,70,0.00,,,0.00,365,TxWx,2014-07-25 21:45:00,
2014-07-25 17:50:00,79.0,67.0,29.82,SSW,202,1.1,1.1,66,0.00,,,0.00,352,TxWx,2014-07-25 21:50:00,
2014-07-25 17:57:00,79.8,67.0,29.82,NW,321,1.1,1.1,65,0.00,,,0.00,342,TxWx,2014-07-25 21:57:00,
2014-07-25 18:02:00,79.4,65.6,29.82,SSE,152,1.1,2.0,62,0.00,,,0.00,341,TxWx,2014-07-25 22:02:00,
2014-07-25 18:07:00,79.4,70.2,29.82,NNW,327,0.0,0.0,73,0.00,,,0.00,342,TxWx,2014-07-25 22:07:00,
2014-07-25 18:12:00,78.9,67.9,29.83,SW,214,1.1,2.0,69,0.00,,,0.00,344,TxWx,2014-07-25 22:12:00,
2014-07-25 18:17:00,78.8,66.4,29.83,SE,136,1.1,1.1,65,0.00,,,0.00,166,TxWx,2014-07-25 22:17:00,
2014-07-25 18:22:00,77.4,66.3,29.83,South,173,0.0,1.0,68,0.00,,,0.00,53,TxWx,2014-07-25 22:22:00,
2014-07-25 18:27:00,76.5,68.4,29.83,East,97,1.1,1.1,76,0.00,,,0.00,291,TxWx,2014-07-25 22:27:00,
2014-07-25 18:32:00,76.3,70.8,29.83,East,88,0.0,0.0,83,0.00,,,0.00,274,TxWx,2014-07-25 22:32:00,
2014-07-25 18:37:00,76.9,70.0,29.83,East,89,0.0,0.0,79,0.00,,,0.00,271,TxWx,2014-07-25 22:37:00,
2014-07-25 18:42:00,77.2,70.9,29.83,NNW,331,0.0,0.0,81,0.00,,,0.00,248,TxWx,2014-07-25 22:42:00,
2014-07-25 18:47:00,77.3,70.8,29.83,West,267,0.0,0.0,80,0.00,,,0.00,243,TxWx,2014-07-25 22:47:00,
2014-07-25 18:52:00,77.0,70.4,29.83,SSE,167,1.1,1.1,80,0.00,,,0.00,269,TxWx,2014-07-25 22:52:00,
2014-07-25 18:57:00,77.9,71.6,29.83,NW,312,0.0,1.0,81,0.00,,,0.00,272,TxWx,2014-07-25 22:57:00,
2014-07-25 19:02:00,77.6,69.1,29.84,NW,323,0.0,0.0,75,0.00,,,0.00,189,TxWx,2014-07-25 23:02:00,
2014-07-25 19:07:00,76.9,70.2,29.84,NNW,348,1.1,1.1,79,0.00,,,0.00,247,TxWx,2014-07-25 23:07:00,
2014-07-25 19:12:00,76.5,72.1,29.84,North,349,1.1,1.1,86,0.00,,,0.00,242,TxWx,2014-07-25 23:12:00,
2014-07-25 19:17:00,76.1,72.5,29.84,North,4,1.1,2.0,88,0.00,,,0.00,215,TxWx,2014-07-25 23:17:00,
2014-07-25 19:22:00,75.9,73.4,29.84,South,190,0.0,1.0,92,0.00,,,0.00,200,TxWx,2014-07-25 23:22:00,
2014-07-25 19:27:00,75.4,73.7,29.84,NNW,338,1.1,1.1,94,0.00,,,0.00,152,TxWx,2014-07-25 23:27:00,
2014-07-25 19:32:00,75.2,73.0,29.83,SSE,168,1.1,1.1,92,0.00,,,0.00,68,TxWx,2014-07-25 23:32:00,
2014-07-25 19:37:00,74.6,73.2,29.83,SW,233,2.4,2.4,95,0.00,,,0.00,43,TxWx,2014-07-25 23:37:00,
2014-07-25 19:42:00,73.6,72.3,29.83,North,349,1.1,2.0,95,0.00,,,0.00,45,TxWx,2014-07-25 23:42:00,
2014-07-25 19:47:00,72.9,71.8,29.83,East,94,1.1,1.1,96,0.00,,,0.00,32,TxWx,2014-07-25 23:47:00,
2014-07-25 19:52:00,72.3,71.0,29.83,South,187,1.1,1.1,95,0.00,,,0.00,34,TxWx,2014-07-25 23:52:00,
2014-07-25 19:57:00,71.6,70.0,29.83,NW,309,1.1,1.1,94,0.00,,,0.00,30,TxWx,2014-07-25 23:57:00,
2014-07-25 20:02:00,71.5,68.9,29.83,SW,215,0.0,0.0,91,0.00,,,0.00,20,TxWx,2014-07-26 00:02:00,
2014-07-25 20:07:00,71.4,69.1,29.83,ESE,109,0.0,0.0,92,0.00,,,0.00,12,TxWx,2014-07-26 00:07:00,
2014-07-25 20:12:00,71.2,68.4,29.83,ESE,108,1.1,1.1,90,0.00,,,0.00,10,TxWx,2014-07-26 00:12:00,
2014-07-25 20:17:00,70.4,67.9,29.83,South,175,3.5,3.5,92,0.00,,,0.00,9,TxWx,2014-07-26 00:17:00,
2014-07-25 20:22:00,70.2,68.0,29.84,SSW,199,0.0,1.0,92,0.00,,,0.00,4,TxWx,2014-07-26 00:22:00,
2014-07-25 20:27:00,69.9,66.7,29.84,SSW,197,0.0,1.0,89,0.00,,,0.00,4,TxWx,2014-07-26 00:27:00,
2014-07-25 20:32:00,69.4,64.9,29.84,SSW,197,0.0,1.0,85,0.00,,,0.00,4,TxWx,2014-07-26 00:32:00,
2014-07-25 20:37:00,69.4,64.5,29.84,NW,314,0.0,0.0,84,0.00,,,0.00,2,TxWx,2014-07-26 00:37:00,
2014-07-25 20:42:00,69.1,64.0,29.84,SSW,196,1.1,1.1,83,0.00,,,0.00,1,TxWx,2014-07-26 00:42:00,
2014-07-25 20:47:00,68.8,63.0,29.84,SSW,206,0.0,0.0,81,0.00,,,0.00,1,TxWx,2014-07-26 00:47:00,
2014-07-25 20:52:00,68.2,61.4,29.84,SSW,194,2.4,2.4,78,0.00,,,0.00,0,TxWx,2014-07-26 00:52:00,
2014-07-25 20:57:00,67.8,59.0,29.84,SSW,207,2.4,2.4,73,0.00,,,0.00,0,TxWx,2014-07-26 00:57:00,
2014-07-25 21:02:00,67.5,57.9,29.84,South,187,1.1,1.1,71,0.00,,,0.00,0,TxWx,2014-07-26 01:02:00,
2014-07-25 21:07:00,67.3,57.8,29.84,South,187,1.1,1.1,71,0.00,,,0.00,0,TxWx,2014-07-26 01:07:00,
2014-07-25 21:12:00,67.1,55.6,29.84,SSW,195,2.4,2.4,66,0.00,,,0.00,0,TxWx,2014-07-26 01:12:00,
2014-07-25 21:17:00,67.1,54.1,29.84,SSW,200,1.1,2.0,63,0.00,,,0.00,0,TxWx,2014-07-26 01:17:00,
2014-07-25 21:22:00,66.9,52.6,29.84,SSW,210,0.0,1.0,60,0.00,,,0.00,0,TxWx,2014-07-26 01:22:00,
2014-07-25 21:27:00,66.9,52.6,29.85,SSW,210,1.1,1.1,60,0.00,,,0.00,0,TxWx,2014-07-26 01:27:00,
2014-07-25 21:32:00,66.7,51.0,29.85,SW,215,2.4,2.4,56,0.00,,,0.00,0,TxWx,2014-07-26 01:32:00,
2014-07-25 21:37:00,66.6,51.4,29.85,SSW,194,1.1,1.1,58,0.00,,,0.00,0,TxWx,2014-07-26 01:37:00,
2014-07-25 21:42:00,66.6,50.7,29.85,SSW,195,0.0,1.0,56,0.00,,,0.00,0,TxWx,2014-07-26 01:42:00,
2014-07-25 21:47:00,66.7,49.7,29.85,SSW,195,1.1,1.1,54,0.00,,,0.00,0,TxWx,2014-07-26 01:47:00,
2014-07-25 21:52:00,66.7,48.7,29.85,SSW,208,2.4,2.4,52,0.00,,,0.00,0,TxWx,2014-07-26 01:52:00,
2014-07-25 21:57:00,66.5,49.6,29.85,SSW,208,2.4,2.4,54,0.00,,,0.00,0,TxWx,2014-07-26 01:57:00,
2014-07-25 22:02:00,66.5,49.2,29.84,SW,223,0.0,0.0,53,0.00,,,0.00,0,TxWx,2014-07-26 02:02:00,
2014-07-25 22:07:00,66.3,48.7,29.84,SW,224,0.0,0.0,53,0.00,,,0.00,0,TxWx,2014-07-26 02:07:00,
2014-07-25 22:12:00,66.3,47.7,29.84,SW,224,0.0,0.0,51,0.00,,,0.00,0,TxWx,2014-07-26 02:12:00,
2014-07-25 22:17:00,66.1,46.7,29.84,SW,224,0.0,0.0,49,0.00,,,0.00,0,TxWx,2014-07-26 02:17:00,
2014-07-25 22:22:00,66.2,44.8,29.85,SW,224,0.0,0.0,46,0.00,,,0.00,0,TxWx,2014-07-26 02:22:00,
2014-07-25 22:27:00,66.1,43.4,29.85,SW,223,0.0,0.0,43,0.00,,,0.00,0,TxWx,2014-07-26 02:27:00,
2014-07-25 22:32:00,66.2,43.6,29.85,SW,226,0.0,0.0,44,0.00,,,0.00,0,TxWx,2014-07-26 02:32:00,
2014-07-25 22:37:00,66.3,43.4,29.85,NNW,333,0.0,0.0,43,0.00,,,0.00,0,TxWx,2014-07-26 02:37:00,
2014-07-25 22:42:00,66.1,41.1,29.85,NNW,333,0.0,0.0,40,0.00,,,0.00,0,TxWx,2014-07-26 02:42:00,
2014-07-25 22:47:00,65.8,39.5,29.85,NW,318,0.0,0.0,38,0.00,,,0.00,0,TxWx,2014-07-26 02:47:00,
2014-07-25 22:52:00,65.5,36.4,29.85,NW,318,0.0,0.0,34,0.00,,,0.00,0,TxWx,2014-07-26 02:52:00,
2014-07-25 22:57:00,65.3,36.8,29.85,NNW,333,0.0,0.0,34,0.00,,,0.00,0,TxWx,2014-07-26 02:57:00,
2014-07-25 23:02:00,65.1,34.2,29.86,NNW,333,0.0,0.0,31,0.00,,,0.00,0,TxWx,2014-07-26 03:02:00,
2014-07-25 23:07:00,64.9,30.5,29.86,NW,316,0.0,0.0,27,0.00,,,0.00,0,TxWx,2014-07-26 03:07:00,